Gainesville, AL

12:33 AM CDT on June 24, 2017 (GMT -0500)
Meridian Naval Air Station | | Change Station
Active Advisory: Flood Warning Active Notice: Public Information Statement

Elev 315 ft 32.55 °N, 88.56 °W | Updated 7 minutes ago

Rain
Rain
76 °F
Feels Like 76 °F
N
8
Wind Variable Wind from WSW

Today
High -- | Low -- °F
--% Chance of Precip.
Yesterday
High -- | Low -- °F
Precip. -- in
Pressure 29.98 in
Visibility 10.0 miles
Clouds Few 900 ft
Mostly Cloudy 2800 ft
Overcast 4600 ft
Dew Point 71 °F
Humidity 85%
Rainfall 0.00 in
Snow Depth Not available.
5:45 AM 8:04 PM
New Moon, 0% visible
SPECI KNMM 240526Z AUTO 25007KT 10SM FEW009 BKN028 OVC046 24/22 A2998 RMK AO2 T02440217 $
Pressure 29.98 in
Visibility 10.0 miles
Clouds Few 900 ft
Mostly Cloudy 2800 ft
Overcast 4600 ft
Dew Point 71 °F
Humidity 85%
Rainfall 0.00 in
Snow Depth Not available.
5:45 AM 8:04 PM
New Moon, 0% visible
SPECI KNMM 240526Z AUTO 25007KT 10SM FEW009 BKN028 OVC046 24/22 A2998 RMK AO2 T02440217 $

Get Your Daily Forecast Email!

Thanks for signing up!

Be on the lookout for a verification email in your inbox.

You'll start receiving severe weather alerts in your inbox..

×

10-Day Weather Forecast

Almanac

Astronomy

Jun. 24, 2017 Rise Set
Actual Time
Civil Twilight
Nautical Twilight
Astronomical Twilight
Moon
Length of Visible Light
Length of Day
Tomorrow will be .
, % of the Moon is Illuminated

Today's Extremes

State Highs State Lows

Community

WunderPhotos

Category 6

Welcome to Category 6. This is the collective home for Weather Underground's featured writeups by Dr. Jeff Masters (right), Bob Henson (left), Chris Burt, and other regular contributors.

Nearby

Air Quality

  Air Quality AQ Index Pollutant
Not available.

Snow Depth

Station Depth Elevation

Earthquake Activity

City Distance Mag. Time & Date
Minimum magnitude displayed is 2.5.

Coastal Water Temperatures

Place Temperature

Stations

Nearby Weather Stations

Station Location Temp. Windchill Dew Point Humidity Wind Precip. Elev Updated Type
                   

Watches & Warnings

Flood Warning
Issued: 8:39 PM CDT Jun. 23, 2017 – National Weather Service

... Flood Warning extended until Wednesday morning... the Flood Warning
continues for
the Tombigbee river at Demopolis lock and dam.
* From Saturday evening to Wednesday morning... or until the warning
is cancelled.
* At 8:15 PM Friday the stage was 63.3 feet.
* Flood stage is 68.0 feet.
* Minor flooding is forecast.
* Forecast... rise above flood stage by tomorrow late evening and
continue to rise to near 70.4 feet by Monday morning. The river
will fall below flood stage by Tuesday night.


Lat... Lon 3252 8782 3225 8790 3201 8806 3201 8816
          3241 8809 3253 8790